Time;durP1;ratioP1;P1;durP2;ratioP2;P2;SDS_P1;SDS_P2;PMS_P1;PMS_P2;Temp;Humidity;BMP_temperature;BMP_pressure;BME280_temperature;BME280_humidity;BME280_pressure;Samples;Min_cycle;Max_cycle;Signal;HPM_P1;HPM_P2
2023/11/17 00:00:11;;;;;;;9.00;7.40;;;;;;;5.39;91.36;97938.61;109234;1251;73647;-89
2023/11/17 00:02:40;;;;;;;6.10;5.40;;;;;;;5.38;91.27;97937.95;109114;1251;75499;-88
2023/11/17 00:05:08;;;;;;;8.20;7.40;;;;;;;5.38;91.16;97940.80;108990;1251;72657;-88
2023/11/17 00:07:36;;;;;;;9.00;7.60;;;;;;;5.37;90.95;97940.69;109248;1251;59872;-86
2023/11/17 00:10:06;;;;;;;8.10;7.30;;;;;;;5.37;90.99;97943.35;109109;1251;61601;-89
2023/11/17 00:12:35;;;;;;;8.30;6.80;;;;;;;5.36;90.84;97939.13;109632;1253;71946;-88
2023/11/17 00:15:06;;;;;;;7.60;6.90;;;;;;;5.36;90.80;97935.77;109420;1251;72894;-88
2023/11/17 00:17:35;;;;;;;9.60;8.50;;;;;;;5.36;90.80;97930.64;109402;1251;74519;-88
2023/11/17 00:20:02;;;;;;;9.00;8.10;;;;;;;5.35;90.75;97930.34;109236;1252;59757;-90
2023/11/17 00:22:30;;;;;;;9.00;8.10;;;;;;;5.34;90.94;97938.39;109273;1255;59783;-87
2023/11/17 00:24:57;;;;;;;9.10;8.20;;;;;;;5.33;90.90;97943.04;109037;1253;74810;-86
2023/11/17 00:27:24;;;;;;;10.10;7.90;;;;;;;5.31;91.04;97939.21;109187;1252;74686;-87
2023/11/17 00:29:51;;;;;;;10.00;8.10;;;;;;;5.30;90.98;97942.48;109177;1253;72730;-85
2023/11/17 00:32:18;;;;;;;9.20;8.30;;;;;;;5.30;91.03;97943.41;109063;1253;59759;-87
2023/11/17 00:34:45;;;;;;;8.70;7.80;;;;;;;5.29;91.17;97942.53;109276;1251;60161;-88
2023/11/17 00:37:13;;;;;;;9.30;7.90;;;;;;;5.29;90.85;97945.92;109287;1251;73904;-87
2023/11/17 00:39:40;;;;;;;7.60;6.80;;;;;;;5.28;90.90;97946.86;109198;1254;75852;-86
2023/11/17 00:42:08;;;;;;;11.20;8.10;;;;;;;5.27;90.64;97942.13;109280;1251;70783;-87
2023/11/17 00:44:35;;;;;;;8.60;7.50;;;;;;;5.25;90.57;97932.15;109271;1251;61371;-88
2023/11/17 00:47:06;;;;;;;8.20;7.40;;;;;;;5.23;90.57;97929.94;109298;1256;60629;-88
2023/11/17 00:49:33;;;;;;;8.80;7.40;;;;;;;5.20;90.63;97928.32;109303;1252;73608;-87
2023/11/17 00:52:02;;;;;;;10.20;8.00;;;;;;;5.18;90.71;97921.66;109173;1253;75321;-87
2023/11/17 00:54:31;;;;;;;9.00;8.10;;;;;;;5.17;90.93;97915.17;109219;1255;72276;-87
2023/11/17 00:56:58;;;;;;;9.20;8.30;;;;;;;5.15;91.04;97910.33;109002;1251;59737;-87
2023/11/17 00:59:25;;;;;;;10.10;8.00;;;;;;;5.13;90.98;97909.19;109314;1251;59673;-86
2023/11/17 01:01:53;;;;;;;9.10;8.20;;;;;;;5.12;91.08;97908.92;109053;1251;73545;-87
2023/11/17 01:04:21;;;;;;;9.10;8.20;;;;;;;5.09;91.13;97905.69;109066;1251;74018;-86
2023/11/17 01:06:53;;;;;;;11.50;8.00;;;;;;;5.07;91.16;97905.75;109304;1251;71750;-87
2023/11/17 01:09:22;;;;;;;8.50;7.60;;;;;;;5.05;91.43;97904.08;108949;1251;59862;-88
2023/11/17 01:11:49;;;;;;;7.70;6.90;;;;;;;5.04;91.41;97909.64;109323;1251;59296;-88
2023/11/17 01:14:17;;;;;;;8.60;7.70;;;;;;;5.03;91.44;97903.48;109268;1251;72240;-87
2023/11/17 01:16:44;;;;;;;8.20;7.40;;;;;;;5.02;91.50;97900.04;109212;1251;72909;-88
2023/11/17 01:19:12;;;;;;;9.80;7.80;;;;;;;5.01;91.71;97898.48;109279;1251;72753;-87
2023/11/17 01:21:39;;;;;;;8.20;7.30;;;;;;;5.00;91.47;97894.46;109365;1251;61172;-89
2023/11/17 01:24:06;;;;;;;7.80;7.00;;;;;;;4.98;91.52;97892.23;109253;1251;59339;-86
2023/11/17 01:26:34;;;;;;;7.50;6.70;;;;;;;4.97;91.58;97887.88;109273;1251;71853;-88
2023/11/17 01:29:06;;;;;;;7.00;6.30;;;;;;;4.97;91.51;97890.70;109274;1251;73269;-88
2023/11/17 01:31:33;;;;;;;7.70;6.90;;;;;;;4.97;91.63;97897.82;109293;1251;72568;-87
2023/11/17 01:34:01;;;;;;;7.50;6.70;;;;;;;4.97;91.72;97897.44;109200;1253;59903;-87
2023/11/17 01:36:29;;;;;;;7.30;6.60;;;;;;;4.98;91.41;97894.59;109183;1255;59943;-86
2023/11/17 01:38:57;;;;;;;7.50;6.80;;;;;;;4.97;91.19;97892.30;109214;1254;72765;-87
2023/11/17 01:41:24;;;;;;;9.20;6.90;;;;;;;4.96;91.18;97892.88;109157;1258;74250;-86
2023/11/17 01:43:51;;;;;;;7.10;6.40;;;;;;;4.97;91.22;97887.30;109182;1253;73272;-87
2023/11/17 01:46:19;;;;;;;8.60;7.00;;;;;;;4.98;91.24;97880.70;109139;1253;59574;-89
2023/11/17 01:48:47;;;;;;;6.80;6.00;;;;;;;4.99;91.16;97870.36;109042;1251;60242;-86
2023/11/17 01:51:14;;;;;;;7.60;6.10;;;;;;;5.00;91.00;97870.14;109169;1251;74226;-86
2023/11/17 01:53:42;;;;;;;7.30;6.60;;;;;;;5.00;90.97;97861.08;109050;1251;73442;-87
2023/11/17 01:56:11;;;;;;;8.50;6.30;;;;;;;5.00;90.96;97853.82;109190;1254;73476;-86
2023/11/17 01:58:38;;;;;;;6.90;6.20;;;;;;;4.99;90.89;97854.95;109179;1256;60296;-87
2023/11/17 02:01:07;;;;;;;7.50;6.60;;;;;;;4.98;90.86;97854.79;109169;1253;59010;-87
2023/11/17 02:03:39;;;;;;;7.90;6.10;;;;;;;4.97;90.73;97853.96;109044;1253;73195;-86
2023/11/17 02:06:36;;;;;;;7.80;7.00;;;;;;;4.97;90.89;97843.87;109206;1253;74356;-87
2023/11/17 02:09:15;;;;;;;7.50;6.70;;;;;;;4.96;91.03;97848.15;109167;1253;71504;-87
2023/11/17 02:11:58;;;;;;;6.30;5.70;;;;;;;4.95;91.19;97847.91;109180;1254;61280;-87
2023/11/17 02:14:30;;;;;;;7.50;6.60;;;;;;;4.94;91.65;97847.74;109208;1253;59923;-87
2023/11/17 02:17:00;;;;;;;6.80;6.20;;;;;;;4.94;92.12;97850.23;109225;1253;72116;-87
2023/11/17 02:19:34;;;;;;;7.10;6.40;;;;;;;4.94;92.55;97847.05;109269;1254;75280;-87
2023/11/17 02:22:06;;;;;;;7.90;6.90;;;;;;;4.95;92.97;97845.41;109239;1254;72389;-87
2023/11/17 02:25:01;;;;;;;8.90;5.80;;;;;;;4.96;93.27;97845.36;109297;1253;60761;-86
2023/11/17 02:27:57;;;;;;;9.20;6.30;;;;;;;4.97;93.92;97841.72;108717;1261;59492;-86
2023/11/17 02:30:30;;;;;;;7.20;6.50;;;;;;;4.99;94.32;97839.16;108604;1264;73702;-89
2023/11/17 02:32:59;;;;;;;7.50;6.60;;;;;;;4.99;94.76;97837.36;108543;1263;74379;-87
2023/11/17 02:35:28;;;;;;;6.50;5.80;;;;;;;5.01;95.39;97832.66;108695;1261;73534;-87
2023/11/17 02:38:05;;;;;;;9.20;6.70;;;;;;;5.01;95.72;97832.63;108614;1259;61112;-87
2023/11/17 02:40:35;;;;;;;6.20;5.70;;;;;;;5.02;96.06;97829.41;108702;1260;59418;-86
2023/11/17 02:43:07;;;;;;;7.70;6.90;;;;;;;5.02;96.52;97823.38;108591;1259;72541;-88
2023/11/17 02:45:36;;;;;;;7.80;7.00;;;;;;;5.02;96.94;97819.11;108680;1260;74146;-86
2023/11/17 02:48:04;;;;;;;8.00;7.10;;;;;;;5.01;97.37;97819.33;108880;1259;72613;-88
2023/11/17 02:51:03;;;;;;;8.60;7.50;;;;;;;5.02;97.74;97824.07;109003;1262;61127;-86
2023/11/17 02:53:30;;;;;;;7.80;7.00;;;;;;;5.00;98.08;97824.18;108878;1259;59120;-85
2023/11/17 02:55:57;;;;;;;9.00;8.00;;;;;;;4.99;98.37;97821.24;108738;1260;73791;-85
2023/11/17 02:58:24;;;;;;;8.90;7.90;;;;;;;4.96;98.50;97821.90;108704;1261;74424;-85
2023/11/17 03:00:51;;;;;;;9.60;8.20;;;;;;;4.94;98.85;97819.71;108785;1259;71568;-85
2023/11/17 03:03:23;;;;;;;9.50;7.90;;;;;;;4.93;99.23;97817.98;108792;1260;61826;-85
2023/11/17 03:05:59;;;;;;;12.20;8.20;;;;;;;4.92;99.52;97817.16;109008;1253;59791;-85
2023/11/17 03:08:27;;;;;;;8.90;7.90;;;;;;;4.92;99.78;97818.44;109193;1254;73842;-87
2023/11/17 03:11:00;;;;;;;9.50;7.90;;;;;;;4.90;99.88;97820.68;109078;1254;239869;-84
2023/11/17 03:13:28;;;;;;;9.20;8.30;;;;;;;4.89;99.99;97820.91;109277;1253;72760;-86
2023/11/17 03:15:56;;;;;;;8.80;8.00;;;;;;;4.89;100.00;97815.77;109282;1254;59845;-86
2023/11/17 03:18:26;;;;;;;10.70;8.10;;;;;;;4.89;100.00;97820.56;109118;1254;60027;-86
2023/11/17 03:25:47;;;;;;;10.50;8.30;;;;;;;4.91;100.00;97821.48;105466;1293;600483;-86
2023/11/17 03:28:14;;;;;;;8.60;7.60;;;;;;;4.89;100.00;97823.39;108313;1266;62307;-85
2023/11/17 03:30:41;;;;;;;10.60;8.70;;;;;;;4.88;100.00;97815.83;108780;1259;59018;-85
2023/11/17 03:33:11;;;;;;;8.50;7.70;;;;;;;4.87;100.00;97818.67;108730;1259;71419;-86
2023/11/17 03:35:40;;;;;;;9.40;8.50;;;;;;;4.87;100.00;97817.46;108676;1262;74299;-85
2023/11/17 03:38:13;;;;;;;10.70;8.80;;;;;;;4.86;100.00;97821.60;108556;1259;72521;-86
2023/11/17 03:40:47;;;;;;;14.80;9.00;;;;;;;4.84;100.00;97819.23;108988;1257;61987;-86
2023/11/17 03:43:14;;;;;;;9.00;7.70;;;;;;;4.82;100.00;97813.10;108956;1257;59512;-86
2023/11/17 03:45:48;;;;;;;9.40;8.50;;;;;;;4.81;100.00;97813.86;108872;1257;72383;-87
2023/11/17 03:48:16;;;;;;;9.40;8.40;;;;;;;4.81;100.00;97812.48;108901;1257;74325;-86
2023/11/17 03:50:45;;;;;;;8.90;8.00;;;;;;;4.78;100.00;97813.36;108807;1257;71752;-85
2023/11/17 03:53:12;;;;;;;11.20;8.90;;;;;;;4.76;100.00;97810.44;108834;1258;60110;-87
2023/11/17 03:55:41;;;;;;;10.40;9.00;;;;;;;4.75;100.00;97806.80;109132;1258;59286;-87
2023/11/17 03:58:09;;;;;;;9.10;8.10;;;;;;;4.73;100.00;97809.89;108950;1257;71878;-86
2023/11/17 04:00:36;;;;;;;10.20;9.00;;;;;;;4.71;100.00;97813.01;108824;1258;73149;-85
2023/11/17 04:03:04;;;;;;;11.90;9.00;;;;;;;4.69;100.00;97812.02;108746;1259;72923;-87
2023/11/17 04:05:32;;;;;;;10.80;8.70;;;;;;;4.68;100.00;97815.14;108741;1258;60103;-85
2023/11/17 04:08:00;;;;;;;10.20;7.90;;;;;;;4.66;100.00;97813.60;108882;1259;60112;-85
2023/11/17 04:10:27;;;;;;;9.50;8.50;;;;;;;4.66;100.00;97807.27;108823;1257;72078;-86
2023/11/17 04:12:54;;;;;;;11.40;9.30;;;;;;;4.64;100.00;97803.81;108902;1258;73008;-85
2023/11/17 04:15:22;;;;;;;9.80;8.90;;;;;;;4.62;100.00;97804.26;108837;1258;73755;-85
2023/11/17 04:17:49;;;;;;;9.40;8.50;;;;;;;4.61;100.00;97804.33;108779;1257;59666;-84
2023/11/17 04:20:18;;;;;;;14.40;10.30;;;;;;;4.59;100.00;97802.86;108857;1258;60173;-84
2023/11/17 04:22:46;;;;;;;11.20;8.90;;;;;;;4.56;100.00;97801.07;108808;1257;73042;-86
2023/11/17 04:25:13;;;;;;;11.90;9.60;;;;;;;4.52;100.00;97795.41;108878;1259;73399;-84
2023/11/17 04:27:42;;;;;;;10.20;9.20;;;;;;;4.50;100.00;97799.44;108775;1258;72534;-85
2023/11/17 04:30:11;;;;;;;11.00;9.90;;;;;;;4.48;100.00;97799.17;108991;1253;59590;-85
2023/11/17 04:32:39;;;;;;;9.30;8.50;;;;;;;4.46;100.00;97799.82;108998;1253;59736;-85
2023/11/17 04:35:08;;;;;;;11.00;9.60;;;;;;;4.45;100.00;97797.61;109208;1253;72682;-85
2023/11/17 04:37:39;;;;;;;10.60;9.50;;;;;;;4.42;100.00;97793.15;109019;1253;73939;-84
2023/11/17 04:40:10;;;;;;;11.00;9.90;;;;;;;4.41;100.00;97795.15;109017;1253;73872;-84
2023/11/17 04:42:41;;;;;;;11.30;10.10;;;;;;;4.39;100.00;97786.02;109067;1253;59803;-85
2023/11/17 04:45:11;;;;;;;14.90;10.50;;;;;;;4.39;100.00;97788.17;109028;1253;59497;-83
2023/11/17 04:47:38;;;;;;;10.50;9.20;;;;;;;4.37;100.00;97781.87;109181;1253;72962;-84
2023/11/17 04:50:09;;;;;;;11.00;9.80;;;;;;;4.36;100.00;97782.64;108968;1253;74873;-85
2023/11/17 04:52:36;;;;;;;11.40;10.00;;;;;;;4.35;100.00;97781.29;109011;1258;72789;-84
2023/11/17 04:55:05;;;;;;;13.10;10.20;;;;;;;4.34;100.00;97778.64;108982;1253;61144;-84
2023/11/17 04:57:37;;;;;;;11.30;10.10;;;;;;;4.35;100.00;97770.80;109152;1253;59056;-84
2023/11/17 05:00:06;;;;;;;25.10;17.20;;;;;;;4.36;100.00;97770.09;108968;1253;72979;-84
2023/11/17 05:02:34;;;;;;;29.40;20.00;;;;;;;4.34;100.00;97763.94;109015;1253;73241;-85
2023/11/17 05:05:05;;;;;;;21.30;16.70;;;;;;;4.33;100.00;97758.15;108929;1253;72236;-85
2023/11/17 05:07:35;;;;;;;;;;;;;;;4.31;100.00;97759.17;108962;1254;59949;-88
2023/11/17 05:10:05;;;;;;;11.30;10.10;;;;;;;4.28;100.00;97754.55;109150;1253;59258;-86
2023/11/17 05:12:33;;;;;;;15.20;13.60;;;;;;;4.25;100.00;97750.98;109141;1253;70760;-81
2023/11/17 05:15:00;;;;;;;13.50;11.40;;;;;;;4.24;100.00;97746.23;109131;1253;75227;-81
2023/11/17 05:17:30;;;;;;;13.00;10.40;;;;;;;4.25;100.00;97744.79;109171;1253;71432;-81
2023/11/17 05:19:57;;;;;;;9.90;8.90;;;;;;;4.25;100.00;97745.65;108991;1254;60078;-80
2023/11/17 05:22:24;;;;;;;9.80;8.90;;;;;;;4.25;100.00;97746.18;108989;1256;59033;-82
2023/11/17 05:24:53;;;;;;;10.40;9.20;;;;;;;4.24;100.00;97745.34;109059;1254;72118;-81
2023/11/17 05:27:21;;;;;;;12.30;9.00;;;;;;;4.23;100.00;97742.05;108959;1254;73470;-82
2023/11/17 05:29:48;;;;;;;9.00;8.20;;;;;;;4.22;100.00;97737.15;108973;1254;72586;-81
2023/11/17 05:32:14;;;;;;;10.20;8.80;;;;;;;4.21;100.00;97740.95;108951;1255;61054;-80
2023/11/17 05:34:43;;;;;;;9.50;8.50;;;;;;;4.19;100.00;97736.58;109003;1253;59103;-81
2023/11/17 05:37:09;;;;;;;9.50;8.60;;;;;;;4.18;100.00;97734.88;108997;1253;72701;-83
2023/11/17 05:39:36;;;;;;;9.70;8.70;;;;;;;4.17;100.00;97740.96;109013;1253;73271;-81
2023/11/17 05:42:04;;;;;;;10.80;8.60;;;;;;;4.15;100.00;97742.98;109169;1253;73060;-81
2023/11/17 05:44:30;;;;;;;9.30;8.50;;;;;;;4.15;100.00;97737.88;109192;1253;59093;-81
2023/11/17 05:46:59;;;;;;;8.60;7.80;;;;;;;4.14;100.00;97739.33;109286;1253;59154;-81
2023/11/17 05:49:26;;;;;;;12.10;9.50;;;;;;;4.15;100.00;97744.80;109022;1253;72494;-82
2023/11/17 05:56:13;;;;;;;12.10;9.70;;;;;;;4.09;100.00;97742.47;108773;1257;72686;-82
2023/11/17 05:58:40;;;;;;;12.70;9.60;;;;;;;4.09;100.00;97739.62;108716;1257;59334;-81
2023/11/17 06:01:09;;;;;;;10.50;9.30;;;;;;;4.07;100.00;97736.89;108656;1257;61133;-81
2023/11/17 06:03:39;;;;;;;12.90;10.60;;;;;;;4.06;100.00;97739.06;108749;1259;75136;-82
2023/11/17 06:06:07;;;;;;;11.20;10.10;;;;;;;4.06;100.00;97739.23;108846;1257;75402;-82
2023/11/17 06:08:35;;;;;;;22.10;15.20;;;;;;;4.05;100.00;97741.77;108980;1256;73464;-81
2023/11/17 06:11:08;;;;;;;19.40;17.40;;;;;;;4.05;100.00;97739.84;108793;1256;62195;-82
2023/11/17 06:13:46;;;;;;;19.40;15.90;;;;;;;4.05;100.00;97735.03;108773;1256;61293;-83
2023/11/17 06:16:23;;;;;;;;;;;;;;;4.04;100.00;97733.13;108919;1256;72014;-81
2023/11/17 06:18:56;;;;;;;;;;;;;;;4.02;100.00;97732.90;108979;1256;74638;-81
2023/11/17 06:21:24;;;;;;;16.80;13.20;;;;;;;4.00;100.00;97735.14;108864;1256;72718;-82
2023/11/17 06:23:50;;;;;;;14.20;11.50;;;;;;;3.97;100.00;97729.40;108986;1257;60859;-81
2023/11/17 06:26:17;;;;;;;11.20;10.00;;;;;;;3.96;100.00;97728.23;109116;1253;60048;-82
2023/11/17 06:28:44;;;;;;;12.60;11.10;;;;;;;3.94;100.00;97728.88;108977;1253;72100;-83
2023/11/17 06:31:25;;;;;;;;;;;;;;;;;;;;;
2023/11/17 06:35:13;;;;;;;;;;;;;;;;;;;;;
2023/11/17 06:38:45;;;;;;;10.30;9.20;;;;;;;3.89;100.00;97717.98;108754;1261;60864;-82
2023/11/17 06:41:14;;;;;;;11.20;9.30;;;;;;;3.89;100.00;97716.40;108716;1260;59630;-83
2023/11/17 06:43:41;;;;;;;10.70;9.60;;;;;;;3.89;100.00;97717.96;108666;1259;72912;-83
2023/11/17 06:46:08;;;;;;;11.90;9.40;;;;;;;3.91;100.00;97717.71;108528;1261;74006;-81
2023/11/17 06:48:37;;;;;;;10.30;9.10;;;;;;;3.92;100.00;97713.02;108587;1260;72615;-83
2023/11/17 06:51:07;;;;;;;11.10;9.70;;;;;;;3.94;100.00;97716.81;108673;1260;61223;-83
2023/11/17 06:53:34;;;;;;;10.80;9.50;;;;;;;3.96;100.00;97714.43;108530;1262;60222;-83
2023/11/17 06:56:02;;;;;;;11.70;9.90;;;;;;;3.97;100.00;97711.00;108648;1262;72844;-83
2023/11/17 06:58:29;;;;;;;10.30;9.20;;;;;;;3.99;100.00;97711.25;108654;1260;74210;-82
2023/11/17 07:00:57;;;;;;;12.30;9.70;;;;;;;4.02;100.00;97706.01;108556;1261;72339;-82
2023/11/17 07:03:24;;;;;;;11.40;10.30;;;;;;;4.03;100.00;97704.68;108571;1261;61240;-82
2023/11/17 07:05:51;;;;;;;11.00;9.30;;;;;;;4.05;100.00;97699.78;108680;1259;59551;-83
2023/11/17 07:08:19;;;;;;;10.40;9.30;;;;;;;4.07;100.00;97704.48;108369;1259;71607;-83
2023/11/17 07:10:47;;;;;;;10.20;9.20;;;;;;;4.09;100.00;97703.30;108339;1259;75435;-83
2023/11/17 07:13:14;;;;;;;11.20;10.10;;;;;;;4.12;100.00;97705.61;108945;1253;71102;-84
2023/11/17 07:15:41;;;;;;;13.70;10.40;;;;;;;4.15;100.00;97702.09;109043;1253;59426;-83
2023/11/17 07:18:12;;;;;;;10.70;9.60;;;;;;;4.15;100.00;97698.88;108795;1253;59573;-83
2023/11/17 07:20:39;;;;;;;12.30;11.00;;;;;;;4.16;100.00;97700.04;108994;1253;72098;-81
2023/11/17 07:23:08;;;;;;;12.00;10.80;;;;;;;4.18;100.00;97700.70;109160;1252;75261;-82
2023/11/17 07:25:40;;;;;;;19.90;13.20;;;;;;;4.17;100.00;97692.73;109131;1253;72633;-82
2023/11/17 07:28:08;;;;;;;25.80;16.20;;;;;;;4.19;100.00;97694.41;108930;1256;60977;-83
2023/11/17 07:30:36;;;;;;;33.00;20.50;;;;;;;4.21;100.00;97687.92;109079;1254;60227;-83
2023/11/17 07:33:05;;;;;;;29.70;17.50;;;;;;;4.23;100.00;97686.60;109105;1254;71542;-83
2023/11/17 07:35:32;;;;;;;21.90;17.50;;;;;;;4.25;100.00;97692.83;108857;1258;75057;-83
2023/11/17 07:37:59;;;;;;;15.10;12.90;;;;;;;4.27;100.00;97691.34;109027;1254;72439;-83
2023/11/17 07:40:27;;;;;;;17.20;13.50;;;;;;;4.28;100.00;97691.96;108677;1254;61079;-84
2023/11/17 07:42:54;;;;;;;19.00;13.80;;;;;;;4.30;100.00;97691.34;109108;1253;60119;-84
2023/11/17 07:45:21;;;;;;;17.70;13.00;;;;;;;4.32;100.00;97692.09;108871;1253;72684;-85
2023/11/17 07:47:48;;;;;;;16.80;14.10;;;;;;;4.34;100.00;97686.11;109138;1253;74467;-85
2023/11/17 07:50:18;;;;;;;21.80;17.80;;;;;;;4.37;100.00;97684.92;108941;1253;71875;-84
2023/11/17 07:52:46;;;;;;;19.10;16.20;;;;;;;4.40;100.00;97685.48;108969;1253;60980;-85
2023/11/17 07:55:13;;;;;;;16.00;14.20;;;;;;;4.42;100.00;97693.84;108973;1253;60626;-84
2023/11/17 07:57:41;;;;;;;19.20;12.80;;;;;;;4.44;100.00;97680.80;108935;1253;74358;-84
2023/11/17 08:00:18;;;;;;;33.90;18.10;;;;;;;4.45;100.00;97683.58;108707;1253;73019;-85
2023/11/17 08:02:46;;;;;;;32.90;20.30;;;;;;;4.46;100.00;97679.98;109007;1254;72679;-84
2023/11/17 08:05:14;;;;;;;32.20;21.60;;;;;;;4.47;100.00;97668.08;108989;1254;60960;-86
2023/11/17 08:07:41;;;;;;;27.80;20.20;;;;;;;4.48;100.00;97677.60;109080;1253;59381;-84
2023/11/17 08:10:09;;;;;;;15.30;13.70;;;;;;;4.47;100.00;97682.74;108823;1254;73282;-84
2023/11/17 08:12:36;;;;;;;15.40;13.70;;;;;;;4.49;100.00;97674.17;109024;1254;75740;-85
2023/11/17 08:15:05;;;;;;;16.30;14.70;;;;;;;4.51;100.00;97669.95;109097;1253;73428;-85
2023/11/17 08:17:33;;;;;;;19.30;16.20;;;;;;;4.54;100.00;97666.60;109123;1257;62017;-86
2023/11/17 08:20:00;;;;;;;24.90;20.70;;;;;;;4.57;100.00;97667.33;109085;1254;61020;-85
2023/11/17 08:22:29;;;;;;;26.10;17.90;;;;;;;4.59;100.00;97667.40;109025;1256;74198;-84
2023/11/17 08:24:57;;;;;;;32.90;19.90;;;;;;;4.60;100.00;97661.62;108942;1258;73352;-85
2023/11/17 08:27:24;;;;;;;20.10;15.70;;;;;;;4.63;100.00;97668.23;108959;1256;72735;-85
2023/11/17 08:29:53;;;;;;;20.90;17.00;;;;;;;4.65;100.00;97658.89;108883;1259;60933;-83
2023/11/17 08:32:20;;;;;;;26.00;18.20;;;;;;;4.67;100.00;97658.38;108797;1255;60231;-83
2023/11/17 08:34:48;;;;;;;23.40;18.80;;;;;;;4.69;100.00;97662.71;108938;1253;75390;-85
2023/11/17 08:37:15;;;;;;;26.30;18.30;;;;;;;4.70;100.00;97665.85;108793;1254;73516;-84
2023/11/17 08:39:42;;;;;;;17.00;14.10;;;;;;;4.69;100.00;97665.73;109105;1254;73128;-84
2023/11/17 08:42:09;;;;;;;19.10;14.90;;;;;;;4.68;100.00;97662.94;109077;1255;61091;-85
2023/11/17 08:44:37;;;;;;;16.20;14.60;;;;;;;4.68;100.00;97657.96;109164;1254;59599;-83
2023/11/17 08:47:07;;;;;;;17.30;15.60;;;;;;;4.69;100.00;97665.57;109013;1254;74922;-83
2023/11/17 08:49:36;;;;;;;15.80;13.90;;;;;;;4.70;100.00;97654.85;109043;1254;74149;-83
2023/11/17 08:52:07;;;;;;;16.10;14.30;;;;;;;4.73;100.00;97664.10;108891;1254;73594;-83
2023/11/17 08:54:35;;;;;;;16.30;14.40;;;;;;;4.75;100.00;97649.98;108995;1253;60930;-85
2023/11/17 08:57:03;;;;;;;15.20;13.70;;;;;;;4.77;100.00;97645.26;108912;1253;61062;-84
2023/11/17 08:59:30;;;;;;;15.50;13.90;;;;;;;4.80;100.00;97640.80;108882;1254;71779;-85
2023/11/17 09:01:58;;;;;;;20.30;15.30;;;;;;;4.83;100.00;97635.68;108925;1257;74122;-84
2023/11/17 09:04:26;;;;;;;19.00;16.10;;;;;;;4.86;100.00;97633.39;108743;1259;73720;-85
2023/11/17 09:06:53;;;;;;;19.20;14.80;;;;;;;4.89;100.00;97634.46;108851;1254;60799;-84
2023/11/17 09:09:21;;;;;;;18.50;15.90;;;;;;;4.93;100.00;97632.99;109157;1254;59111;-85
2023/11/17 09:12:00;;;;;;;26.50;18.00;;;;;;;4.97;100.00;97625.48;108967;1254;75861;-86
2023/11/17 09:14:31;;;;;;;24.00;18.40;;;;;;;5.00;100.00;97630.41;109010;1254;73332;-85
2023/11/17 09:17:01;;;;;;;17.20;15.20;;;;;;;5.03;100.00;97629.69;109031;1254;71622;-83
2023/11/17 09:19:32;;;;;;;18.60;16.80;;;;;;;5.07;100.00;97626.81;108917;1254;60700;-83
2023/11/17 09:22:04;;;;;;;16.00;14.50;;;;;;;5.11;100.00;97626.25;108810;1255;60393;-81
2023/11/17 09:32:55;;;;;;;18.50;15.90;;;;;;;5.18;100.00;97616.39;86082;1273;74332;31
2023/11/17 09:35:25;;;;;;;22.70;19.70;;;;;;;5.22;100.00;97617.06;106750;1278;61985;-83
2023/11/17 09:38:00;;;;;;;13.00;11.30;;;;;;;5.25;100.00;97607.83;107078;1279;61351;-83
2023/11/17 09:40:36;;;;;;;13.30;12.00;;;;;;;5.26;100.00;97615.02;107491;1280;72658;-83
2023/11/17 09:43:15;;;;;;;16.50;12.10;;;;;;;5.26;100.00;97602.45;106969;1280;75444;-83
2023/11/17 09:45:44;;;;;;;13.60;12.30;;;;;;;5.25;100.00;97617.05;107064;1284;72570;-81
2023/11/17 09:48:12;;;;;;;13.90;12.40;;;;;;;5.24;100.00;97607.70;107027;1278;60073;-83
2023/11/17 09:50:50;;;;;;;14.50;12.50;;;;;;;5.24;100.00;97606.98;106846;1280;60438;-82
2023/11/17 09:53:18;;;;;;;14.10;11.20;;;;;;;5.25;100.00;97604.09;106678;1280;74948;-82
2023/11/17 09:55:45;;;;;;;13.20;11.90;;;;;;;5.25;100.00;97600.71;106876;1279;73201;-82
2023/11/17 09:58:17;;;;;;;13.30;11.90;;;;;;;5.27;100.00;97596.88;106710;1280;71182;-84
2023/11/17 10:00:45;;;;;;;13.30;11.90;;;;;;;5.29;100.00;97595.16;106996;1280;61545;-83
2023/11/17 10:03:13;;;;;;;14.20;12.10;;;;;;;5.30;100.00;97589.08;106850;1278;61107;-84
2023/11/17 10:05:41;;;;;;;15.80;13.30;;;;;;;5.31;100.00;97590.77;106614;1283;73392;-83
2023/11/17 10:08:12;;;;;;;16.10;13.70;;;;;;;5.33;100.00;97587.45;106884;1280;74278;-83
2023/11/17 10:10:44;;;;;;;13.90;12.50;;;;;;;5.35;100.00;97586.07;106855;1283;73597;-83
2023/11/17 10:13:12;;;;;;;12.90;11.50;;;;;;;5.36;100.00;97581.58;106716;1280;60169;-82
2023/11/17 10:15:48;;;;;;;15.60;13.00;;;;;;;5.39;100.00;97583.72;107019;1280;59162;-86
2023/11/17 10:18:24;;;;;;;15.00;13.50;;;;;;;5.41;100.00;97586.05;107005;1280;73668;-84
2023/11/17 10:20:59;;;;;;;17.50;15.00;;;;;;;5.43;100.00;97579.94;106723;1280;74043;-83
2023/11/17 10:23:26;;;;;;;22.30;18.80;;;;;;;5.45;100.00;97581.73;106543;1279;71418;-83
2023/11/17 10:25:57;;;;;;;40.00;24.10;;;;;;;5.48;100.00;97586.37;106453;1279;62399;-82
2023/11/17 10:28:27;;;;;;;37.40;25.10;;;;;;;5.50;100.00;97582.70;106832;1279;61086;-84
2023/11/17 10:31:00;;;;;;;31.60;22.90;;;;;;;5.52;100.00;97582.05;107098;1280;72386;-85
2023/11/17 10:33:29;;;;;;;38.20;25.70;;;;;;;5.53;100.00;97577.54;107321;1280;72595;-82
2023/11/17 10:36:10;;;;;;;34.10;21.40;;;;;;;5.54;100.00;97577.48;106868;1280;73579;-84
2023/11/17 10:38:45;;;;;;;18.20;15.30;;;;;;;5.54;100.00;97570.90;107138;1280;60990;-83
2023/11/17 10:41:32;;;;;;;16.10;14.30;;;;;;;5.54;100.00;97572.53;106656;1280;61760;-84
2023/11/17 10:44:02;;;;;;;15.30;13.70;;;;;;;5.53;100.00;97572.91;107224;1280;73705;-85
2023/11/17 10:46:35;;;;;;;16.70;14.80;;;;;;;5.52;100.00;97571.02;107182;1279;74354;-84
2023/11/17 10:49:06;;;;;;;19.50;16.00;;;;;;;5.53;100.00;97567.45;107095;1280;70917;-83
2023/11/17 10:51:51;;;;;;;15.30;10.00;;;;;;;5.52;100.00;97564.10;107078;1280;60073;-85
2023/11/17 10:54:19;;;;;;;16.50;13.60;;;;;;;5.52;100.00;97566.94;106998;1278;59268;-83
2023/11/17 10:56:51;;;;;;;18.50;16.50;;;;;;;5.50;100.00;97567.60;106962;1279;74697;-83
2023/11/17 10:59:48;;;;;;;16.50;14.60;;;;;;;5.50;100.00;97568.85;106439;1279;74973;-83
2023/11/17 11:02:28;;;;;;;16.90;12.80;;;;;;;5.51;100.00;97566.11;106923;1280;72719;-85
2023/11/17 11:05:14;;;;;;;17.30;15.50;;;;;;;5.53;100.00;97567.60;106895;1279;59850;-82
2023/11/17 11:07:46;;;;;;;17.20;15.50;;;;;;;5.54;100.00;97566.86;107238;1283;60035;-83
2023/11/17 11:10:15;;;;;;;13.90;12.50;;;;;;;5.55;100.00;97568.19;107028;1280;73685;-82
2023/11/17 11:12:45;;;;;;;14.90;13.40;;;;;;;5.57;100.00;97568.60;107343;1280;74255;-82
2023/11/17 11:15:15;;;;;;;14.40;12.90;;;;;;;5.57;100.00;97567.16;107170;1280;75589;-81
2023/11/17 11:17:52;;;;;;;20.50;17.70;;;;;;;5.57;100.00;97569.81;107006;1280;59345;-83
2023/11/17 11:20:21;;;;;;;17.40;13.90;;;;;;;5.57;100.00;97562.91;107308;1279;59606;-84
2023/11/17 11:22:51;;;;;;;15.20;13.70;;;;;;;5.57;100.00;97565.92;106558;1280;75001;-83
2023/11/17 11:25:19;;;;;;;18.80;13.90;;;;;;;5.56;100.00;97562.09;106848;1279;73128;-85
2023/11/17 11:27:47;;;;;;;20.10;15.30;;;;;;;5.55;100.00;97563.52;106963;1280;71406;-84
2023/11/17 11:30:17;;;;;;;14.60;12.30;;;;;;;5.54;100.00;97563.61;107032;1280;61058;-83
2023/11/17 11:32:44;;;;;;;16.50;14.70;;;;;;;5.53;100.00;97563.17;106822;1278;60411;-85
2023/11/17 11:35:13;;;;;;;15.00;13.20;;;;;;;5.50;100.00;97565.98;106476;1286;74890;-86
2023/11/17 11:37:41;;;;;;;14.70;13.20;;;;;;;5.51;100.00;97563.50;106898;1279;75327;-84
2023/11/17 11:40:12;;;;;;;14.90;13.10;;;;;;;5.49;100.00;97561.64;106658;1280;70729;-84
2023/11/17 11:42:41;;;;;;;17.20;14.70;;;;;;;5.48;100.00;97564.70;106898;1279;60670;-85
2023/11/17 11:45:16;;;;;;;16.10;14.40;;;;;;;5.48;100.00;97564.55;107092;1280;59452;-85
2023/11/17 11:47:49;;;;;;;15.60;13.90;;;;;;;5.47;100.00;97558.55;106716;1280;74646;-83
2023/11/17 11:50:20;;;;;;;14.80;13.10;;;;;;;5.46;100.00;97556.65;107051;1277;74105;-83
2023/11/17 11:53:38;;;;;;;15.40;13.90;;;;;;;5.47;100.00;97561.75;107075;1279;71739;-84